Time;durP1;ratioP1;P1;durP2;ratioP2;P2;SDS_P1;SDS_P2;PMS_P1;PMS_P2;Temp;Humidity;BMP_temperature;BMP_pressure;BME280_temperature;BME280_humidity;BME280_pressure;Samples;Min_cycle;Max_cycle;Signal;HPM_P1;HPM_P2
2024/01/12 00:01:51;;;;;;;23.47;14.77;;;0.50;99.90;;;;;;5058228;28;20205;-79
2024/01/12 00:04:17;;;;;;;25.20;14.67;;;-0.20;99.90;;;;;;5054287;28;20178;-78
2024/01/12 00:06:43;;;;;;;22.87;13.73;;;-0.30;99.90;;;;;;5034505;28;20265;-77
2024/01/12 00:09:09;;;;;;;25.77;15.63;;;0.00;99.90;;;;;;5034071;28;20637;-76
2024/01/12 00:11:35;;;;;;;26.63;16.37;;;-0.50;99.90;;;;;;5035160;28;20246;-76
2024/01/12 00:14:01;;;;;;;28.10;15.80;;;-0.30;99.90;;;;;;5033325;28;20576;-78
2024/01/12 00:16:27;;;;;;;25.47;15.53;;;-0.50;99.90;;;;;;5033714;28;20632;-78
2024/01/12 00:18:54;;;;;;;27.87;15.30;;;-0.50;99.90;;;;;;5033516;28;20187;-79
2024/01/12 00:21:20;;;;;;;28.07;15.33;;;-0.30;99.90;;;;;;5033296;28;20808;-79
2024/01/12 00:23:46;;;;;;;22.70;13.90;;;-0.50;99.90;;;;;;5034003;28;20277;-76
2024/01/12 00:26:12;;;;;;;22.30;14.50;;;-0.50;99.90;;;;;;5035481;28;20226;-75
2024/01/12 00:28:38;;;;;;;26.13;15.37;;;-0.40;99.90;;;;;;5054241;28;20173;-78
2024/01/12 00:31:04;;;;;;;26.43;14.93;;;-0.90;99.90;;;;;;5060771;28;20645;-77
2024/01/12 00:33:29;;;;;;;28.40;16.43;;;-0.10;99.90;;;;;;5068224;28;20194;-78
2024/01/12 00:35:55;;;;;;;27.67;15.53;;;-0.50;99.90;;;;;;5058458;28;20186;-77
2024/01/12 00:38:21;;;;;;;27.87;15.70;;;-0.60;99.90;;;;;;5053399;28;20208;-79
2024/01/12 00:40:47;;;;;;;26.57;15.17;;;-0.80;99.90;;;;;;5055259;28;20209;-81
2024/01/12 00:43:13;;;;;;;30.70;15.97;;;-1.00;99.90;;;;;;5060321;28;20195;-80
2024/01/12 00:45:38;;;;;;;30.50;16.40;;;-0.60;99.90;;;;;;5052682;28;20191;-79
2024/01/12 00:48:05;;;;;;;27.20;16.33;;;-0.90;99.90;;;;;;5055222;28;20226;-77
2024/01/12 00:50:31;;;;;;;30.27;17.50;;;-1.10;99.90;;;;;;5060348;28;20269;-78
2024/01/12 00:52:57;;;;;;;28.03;16.57;;;-0.80;99.90;;;;;;5059909;28;20213;-77
2024/01/12 00:55:23;;;;;;;28.37;15.83;;;-0.90;99.90;;;;;;5054192;28;20177;-78
2024/01/12 00:57:48;;;;;;;29.23;17.57;;;-0.90;99.90;;;;;;5053842;28;20641;-78
2024/01/12 01:00:14;;;;;;;27.03;18.00;;;-1.10;99.90;;;;;;5054196;28;20228;-77
2024/01/12 01:02:40;;;;;;;30.70;17.70;;;-0.80;99.90;;;;;;5051746;28;20236;-78
2024/01/12 01:05:07;;;;;;;31.90;17.00;;;-1.10;99.90;;;;;;5053339;28;20193;-78
2024/01/12 01:07:32;;;;;;;27.13;17.03;;;-0.90;99.90;;;;;;5058268;28;20186;-78
2024/01/12 01:09:58;;;;;;;28.67;16.77;;;-1.10;99.90;;;;;;5062366;28;20222;-80
2024/01/12 01:12:25;;;;;;;27.93;16.23;;;-1.20;99.90;;;;;;5056895;28;20175;-77
2024/01/12 01:14:50;;;;;;;23.70;16.40;;;-1.50;99.90;;;;;;5058979;28;20285;-75
2024/01/12 01:17:16;;;;;;;27.37;16.60;;;-1.30;99.90;;;;;;5062034;28;20198;-77
2024/01/12 01:19:42;;;;;;;27.63;16.47;;;-1.10;99.90;;;;;;5061479;28;20177;-76
2024/01/12 01:22:08;;;;;;;28.87;16.17;;;-1.20;99.90;;;;;;5059486;28;20211;-76
2024/01/12 01:24:33;;;;;;;32.87;16.50;;;-1.10;99.90;;;;;;5061372;28;20215;-77
2024/01/12 01:26:59;;;;;;;27.67;16.63;;;-1.10;99.90;;;;;;5057049;28;20562;-79
2024/01/12 01:29:25;;;;;;;29.83;16.67;;;-0.90;99.90;;;;;;5057451;28;20245;-78
2024/01/12 01:31:51;;;;;;;28.03;15.00;;;-1.60;99.90;;;;;;5055116;28;20182;-77
2024/01/12 01:34:18;;;;;;;23.83;15.23;;;-1.30;99.90;;;;;;5055617;28;20189;-78
2024/01/12 01:36:49;;;;;;;27.73;17.07;;;-1.20;99.90;;;;;;5060573;28;20189;-78
2024/01/12 01:39:15;;;;;;;24.63;16.20;;;-1.20;99.90;;;;;;5050493;28;20638;-79
2024/01/12 01:41:42;;;;;;;27.80;15.83;;;-1.40;99.90;;;;;;5071083;28;20224;-77
2024/01/12 01:44:08;;;;;;;28.33;15.03;;;-1.40;99.90;;;;;;5057296;28;20202;-77
2024/01/12 01:46:34;;;;;;;26.13;15.47;;;-1.60;99.90;;;;;;5055079;28;20259;-76
2024/01/12 01:48:59;;;;;;;28.57;14.97;;;-1.60;99.90;;;;;;5055334;28;20170;-79
2024/01/12 01:51:26;;;;;;;33.40;16.27;;;-1.70;99.90;;;;;;5056541;28;20182;-78
2024/01/12 01:53:53;;;;;;;27.67;16.27;;;-1.50;99.90;;;;;;5054692;28;20190;-79
2024/01/12 01:56:19;;;;;;;22.13;15.00;;;-1.60;99.90;;;;;;5054917;28;20178;-75
2024/01/12 01:58:46;;;;;;;23.60;15.20;;;-1.60;99.90;;;;;;5067859;28;20239;-78
2024/01/12 02:01:14;;;;;;;23.87;14.83;;;-1.60;99.90;;;;;;5062258;28;20205;-80
2024/01/12 02:03:41;;;;;;;29.40;15.80;;;-1.60;99.90;;;;;;5057134;28;20239;-79
2024/01/12 02:06:06;;;;;;;26.47;15.67;;;-1.30;99.90;;;;;;5056845;28;20189;-79
2024/01/12 02:08:33;;;;;;;26.20;14.97;;;-1.40;99.90;;;;;;5057679;28;20181;-78
2024/01/12 02:11:01;;;;;;;23.97;15.03;;;-1.80;99.90;;;;;;5057917;28;20215;-75
2024/01/12 02:13:27;;;;;;;25.00;14.67;;;-1.80;99.90;;;;;;5057827;28;20173;-76
2024/01/12 02:15:53;;;;;;;25.97;15.53;;;-1.70;99.90;;;;;;5055997;28;20186;-77
2024/01/12 02:18:19;;;;;;;27.10;15.37;;;-1.60;99.90;;;;;;5057255;28;20247;-80
2024/01/12 02:20:47;;;;;;;25.70;15.40;;;-2.60;99.90;;;;;;5054928;28;20193;-79
2024/01/12 02:23:14;;;;;;;24.47;15.70;;;-1.70;99.90;;;;;;5053966;28;20176;-80
2024/01/12 02:25:44;;;;;;;27.10;15.87;;;-1.60;99.90;;;;;;5054948;28;20593;-79
2024/01/12 02:28:12;;;;;;;31.13;16.13;;;-1.70;99.90;;;;;;5055529;28;20181;-77
2024/01/12 02:30:38;;;;;;;23.70;14.03;;;-1.60;99.90;;;;;;5056017;28;20210;-78
2024/01/12 02:33:05;;;;;;;27.33;14.43;;;-1.80;99.90;;;;;;5057877;28;20177;-78
2024/01/12 02:35:31;;;;;;;24.10;14.03;;;-1.60;99.90;;;;;;5055782;28;20195;-77
2024/01/12 02:37:57;;;;;;;22.80;14.30;;;-1.60;99.90;;;;;;5055667;28;20699;-79
2024/01/12 02:40:23;;;;;;;24.30;14.90;;;-1.70;99.90;;;;;;5056272;28;20868;-77
2024/01/12 02:42:48;;;;;;;22.60;14.60;;;-1.40;99.90;;;;;;5060249;28;20180;-77
2024/01/12 02:45:14;;;;;;;23.77;13.10;;;-1.70;99.90;;;;;;5066761;28;20173;-79
2024/01/12 02:47:40;;;;;;;25.90;14.07;;;-1.70;99.90;;;;;;5061324;28;20180;-77
2024/01/12 02:50:06;;;;;;;24.97;14.03;;;-1.80;99.90;;;;;;5058852;28;20526;-76
2024/01/12 02:52:35;;;;;;;25.10;14.13;;;-1.80;99.90;;;;;;5056247;28;20182;-78
2024/01/12 02:55:03;;;;;;;24.00;14.23;;;-1.60;99.90;;;;;;5055595;28;20201;-77
2024/01/12 02:57:30;;;;;;;24.90;14.00;;;-1.70;99.90;;;;;;5055164;28;20199;-77
2024/01/12 02:59:55;;;;;;;23.37;14.27;;;-1.80;99.90;;;;;;5055210;28;20173;-79
2024/01/12 03:02:21;;;;;;;24.03;14.77;;;-1.70;99.90;;;;;;5054841;28;20267;-79
2024/01/12 03:04:47;;;;;;;25.73;14.40;;;-1.60;99.90;;;;;;5055270;28;20165;-78
2024/01/12 03:07:13;;;;;;;20.60;13.03;;;-1.80;99.90;;;;;;5054854;28;20176;-78
2024/01/12 03:09:39;;;;;;;18.10;13.10;;;-1.70;99.90;;;;;;5053228;28;20186;-78
2024/01/12 03:12:05;;;;;;;24.50;14.70;;;-1.70;99.90;;;;;;5055580;28;20182;-78
2024/01/12 03:14:31;;;;;;;21.90;14.10;;;-1.60;99.90;;;;;;5057792;28;20203;-77
2024/01/12 03:16:56;;;;;;;19.73;13.13;;;-1.60;99.90;;;;;;5058917;28;20178;-79
2024/01/12 03:19:22;;;;;;;20.70;14.10;;;-1.80;99.90;;;;;;5061294;28;20205;-78
2024/01/12 03:21:48;;;;;;;23.80;12.87;;;-1.60;99.90;;;;;;5056852;28;20318;-79
2024/01/12 03:24:14;;;;;;;19.90;13.03;;;-1.60;99.90;;;;;;5057861;28;20252;-78
2024/01/12 03:26:40;;;;;;;20.63;12.50;;;-1.70;99.90;;;;;;5062777;28;20214;-78
2024/01/12 03:29:05;;;;;;;20.50;12.47;;;-1.70;99.90;;;;;;5063730;28;20183;-75
2024/01/12 03:31:32;;;;;;;18.27;12.03;;;-1.70;99.90;;;;;;5059287;28;20307;-76
2024/01/12 03:33:57;;;;;;;21.43;11.50;;;-1.50;99.90;;;;;;5060189;28;20175;-79
2024/01/12 03:36:23;;;;;;;16.57;10.87;;;-1.70;99.90;;;;;;5061736;28;20186;-77
2024/01/12 03:38:52;;;;;;;17.93;11.80;;;-1.70;99.90;;;;;;5062337;28;20240;-77
2024/01/12 03:41:17;;;;;;;18.37;11.67;;;-1.60;99.90;;;;;;5059970;28;20272;-77
2024/01/12 03:43:43;;;;;;;17.40;11.97;;;-1.40;99.90;;;;;;5056772;28;20287;-80
2024/01/12 03:46:09;;;;;;;19.80;11.33;;;-1.50;99.90;;;;;;5055441;28;20277;-78
2024/01/12 03:48:35;;;;;;;14.63;11.03;;;-1.00;99.90;;;;;;5053333;28;20185;-78
2024/01/12 03:51:01;;;;;;;18.40;11.80;;;-1.40;99.90;;;;;;5054076;28;20192;-79
2024/01/12 03:53:26;;;;;;;16.77;10.80;;;-1.70;99.90;;;;;;5057511;28;20229;-78
2024/01/12 03:55:52;;;;;;;19.23;11.30;;;-1.70;99.90;;;;;;5053180;28;20224;-77
2024/01/12 03:58:18;;;;;;;17.70;11.17;;;-1.70;99.90;;;;;;5052550;28;20658;-78
2024/01/12 04:00:44;;;;;;;22.73;11.50;;;-1.90;99.90;;;;;;5051690;28;20220;-77
2024/01/12 04:03:10;;;;;;;16.57;10.80;;;-1.80;99.90;;;;;;5036053;28;20192;-81
2024/01/12 04:05:36;;;;;;;17.50;11.47;;;-1.90;99.90;;;;;;5055929;28;20176;-77
2024/01/12 04:08:02;;;;;;;19.27;11.13;;;-1.80;99.90;;;;;;5054151;28;20222;-77
2024/01/12 04:10:27;;;;;;;18.00;11.10;;;-1.90;99.90;;;;;;5055027;28;20699;-80
2024/01/12 04:12:53;;;;;;;16.20;10.50;;;-1.90;99.90;;;;;;5052517;28;20189;-78
2024/01/12 04:15:19;;;;;;;15.07;10.03;;;-1.90;99.90;;;;;;5052981;28;20184;-77
2024/01/12 04:17:45;;;;;;;20.13;10.27;;;-1.80;99.90;;;;;;5053313;28;20628;-76
2024/01/12 04:20:11;;;;;;;16.17;10.93;;;-1.70;99.90;;;;;;5055114;28;20177;-80
2024/01/12 04:22:37;;;;;;;16.27;10.50;;;-1.90;99.90;;;;;;5066748;28;20559;-79
2024/01/12 04:25:03;;;;;;;16.30;10.57;;;-2.10;99.90;;;;;;5054745;28;20632;-76
2024/01/12 04:27:29;;;;;;;15.87;10.40;;;-2.20;99.90;;;;;;5054146;28;20186;-78
2024/01/12 04:29:55;;;;;;;18.40;11.10;;;-2.00;99.90;;;;;;5055031;28;20182;-79
2024/01/12 04:32:21;;;;;;;19.20;10.53;;;-2.10;99.90;;;;;;5055434;28;20284;-77
2024/01/12 04:34:46;;;;;;;16.33;10.20;;;-2.10;99.90;;;;;;5060958;28;20180;-78
2024/01/12 04:37:12;;;;;;;15.33;10.27;;;-1.50;99.90;;;;;;5059163;28;20677;-78
2024/01/12 04:39:40;;;;;;;16.17;9.63;;;-1.70;99.90;;;;;;5064654;28;20189;-80
2024/01/12 04:42:06;;;;;;;15.30;10.17;;;-1.90;99.90;;;;;;5062029;28;20211;-81
2024/01/12 04:44:32;;;;;;;16.57;9.97;;;-1.90;99.90;;;;;;5057650;28;20605;-80
2024/01/12 04:46:57;;;;;;;16.93;10.77;;;-2.00;99.90;;;;;;5054075;28;20649;-78
2024/01/12 04:49:23;;;;;;;20.50;10.67;;;-1.80;99.90;;;;;;5065301;28;20170;-78
2024/01/12 04:51:50;;;;;;;17.97;10.67;;;-2.00;99.90;;;;;;5057515;28;20247;-79
2024/01/12 04:54:16;;;;;;;17.83;11.17;;;-1.80;99.90;;;;;;5052512;28;20180;-76
2024/01/12 04:56:42;;;;;;;12.87;9.40;;;-2.00;99.90;;;;;;5054555;28;20172;-78
2024/01/12 04:59:08;;;;;;;17.87;10.43;;;-2.00;99.90;;;;;;5054151;28;20184;-77
2024/01/12 05:01:34;;;;;;;17.00;9.97;;;-2.00;99.90;;;;;;5053342;28;20211;-77
2024/01/12 05:04:00;;;;;;;14.47;9.63;;;-2.10;99.90;;;;;;5053563;28;20216;-78
2024/01/12 05:06:26;;;;;;;15.73;10.27;;;-2.20;99.90;;;;;;5061008;28;20184;-78
2024/01/12 05:08:51;;;;;;;17.20;10.10;;;-2.30;99.90;;;;;;5054481;28;20168;-78
2024/01/12 05:11:18;;;;;;;17.57;10.67;;;-2.10;99.90;;;;;;5054314;28;20252;-79
2024/01/12 05:13:44;;;;;;;16.10;10.87;;;-1.70;99.90;;;;;;5054111;28;20180;-77
2024/01/12 05:16:10;;;;;;;14.13;10.23;;;-1.90;99.90;;;;;;5062720;28;20236;-78
2024/01/12 05:18:37;;;;;;;22.43;11.93;;;-2.10;99.90;;;;;;5058160;28;20215;-81
2024/01/12 05:21:03;;;;;;;16.13;11.13;;;-2.10;99.90;;;;;;5053682;28;21020;-79
2024/01/12 05:23:28;;;;;;;20.27;11.53;;;-2.30;99.90;;;;;;5053257;28;20199;-78
2024/01/12 05:25:54;;;;;;;23.63;11.33;;;-2.10;99.90;;;;;;5052646;28;20203;-76
2024/01/12 05:28:20;;;;;;;20.90;11.77;;;-2.00;99.90;;;;;;5051070;28;20180;-77
2024/01/12 05:30:46;;;;;;;17.53;11.10;;;-1.90;99.90;;;;;;5052504;28;20320;-78
2024/01/12 05:33:11;;;;;;;15.23;10.47;;;-1.80;99.90;;;;;;5052838;28;20256;-77
2024/01/12 05:35:37;;;;;;;22.70;11.20;;;-1.90;99.90;;;;;;5053284;28;20220;-77
2024/01/12 05:38:03;;;;;;;21.70;12.07;;;-1.80;99.90;;;;;;5052300;28;20186;-76
2024/01/12 05:40:29;;;;;;;22.67;11.13;;;-2.30;99.90;;;;;;5052297;28;20262;-76
2024/01/12 05:42:55;;;;;;;16.13;10.73;;;-2.10;99.90;;;;;;5052552;28;20188;-75
2024/01/12 05:45:21;;;;;;;17.73;11.20;;;-1.90;99.90;;;;;;5052537;28;20195;-79
2024/01/12 05:47:49;;;;;;;21.47;11.10;;;-2.10;99.90;;;;;;5052879;28;20177;-76
2024/01/12 05:50:15;;;;;;;20.97;11.67;;;-2.20;99.90;;;;;;5051352;28;20181;-77
2024/01/12 05:52:46;;;;;;;14.90;10.77;;;-1.70;99.90;;;;;;5053102;28;20173;-77
2024/01/12 05:55:12;;;;;;;19.53;10.93;;;-1.90;99.90;;;;;;5054436;28;20191;-78
2024/01/12 05:57:41;;;;;;;16.70;10.83;;;-1.80;99.90;;;;;;5058475;28;20218;-81
2024/01/12 06:00:08;;;;;;;19.60;11.30;;;-2.00;99.90;;;;;;5060651;28;20164;-78
2024/01/12 06:02:34;;;;;;;18.83;11.67;;;-1.70;99.90;;;;;;5057250;28;20961;-79
2024/01/12 06:05:00;;;;;;;19.33;11.33;;;-2.00;99.90;;;;;;5056287;28;20215;-77
2024/01/12 06:07:26;;;;;;;17.43;10.73;;;-1.80;99.90;;;;;;5055854;28;20199;-77
2024/01/12 06:09:53;;;;;;;19.13;11.97;;;-1.70;99.90;;;;;;5055679;28;20220;-78
2024/01/12 06:12:19;;;;;;;16.77;10.77;;;-1.60;99.90;;;;;;5054379;28;20188;-79
2024/01/12 06:14:45;;;;;;;15.70;10.47;;;-1.80;99.90;;;;;;5055415;28;20174;-77
2024/01/12 06:17:10;;;;;;;16.30;11.03;;;-1.80;99.90;;;;;;5055214;28;20181;-78
2024/01/12 06:19:37;;;;;;;16.03;10.17;;;-1.70;99.90;;;;;;5055830;28;20673;-80
2024/01/12 06:22:04;;;;;;;18.27;10.63;;;-1.90;99.90;;;;;;5054784;28;20703;-79
2024/01/12 06:24:30;;;;;;;15.43;10.77;;;-1.80;99.90;;;;;;5054589;28;20182;-78
2024/01/12 06:26:56;;;;;;;20.80;11.10;;;-1.90;99.90;;;;;;5056266;28;20175;-79
2024/01/12 06:29:21;;;;;;;19.60;11.40;;;-1.90;99.90;;;;;;5055159;28;20223;-78
2024/01/12 06:31:48;;;;;;;17.70;11.23;;;-1.90;99.90;;;;;;5055074;28;20192;-79
2024/01/12 06:34:14;;;;;;;17.87;11.10;;;-1.60;99.90;;;;;;5055163;28;20204;-77
2024/01/12 06:36:43;;;;;;;15.67;10.33;;;-2.00;99.90;;;;;;5054914;28;20624;-77
2024/01/12 06:39:09;;;;;;;22.03;12.43;;;-1.80;99.90;;;;;;5067089;28;20547;-78
2024/01/12 06:41:47;;;;;;;16.70;11.83;;;-1.50;99.90;;;;;;5055156;28;20213;-79
2024/01/12 06:44:17;;;;;;;15.37;10.73;;;-1.90;99.90;;;;;;5056676;28;20204;-77
2024/01/12 06:46:43;;;;;;;17.30;10.93;;;-1.60;99.90;;;;;;5038123;28;20196;-77
2024/01/12 06:49:13;;;;;;;18.83;11.73;;;-1.90;99.90;;;;;;5046542;28;20212;-78
2024/01/12 06:51:40;;;;;;;19.67;11.47;;;-2.00;99.90;;;;;;5052717;28;20179;-79
2024/01/12 06:54:07;;;;;;;18.43;11.70;;;-1.70;99.90;;;;;;5052940;28;20640;-78
2024/01/12 06:56:37;;;;;;;17.43;11.03;;;-1.70;99.90;;;;;;5053011;28;20723;-79
2024/01/12 06:59:04;;;;;;;15.87;11.30;;;-1.30;99.90;;;;;;5054744;28;20172;-76
2024/01/12 07:01:32;;;;;;;17.17;11.77;;;-1.80;99.90;;;;;;5053713;28;20239;-77
2024/01/12 07:03:58;;;;;;;21.83;10.73;;;-1.80;99.90;;;;;;5054474;28;20172;-77
2024/01/12 07:06:23;;;;;;;18.93;11.57;;;-1.70;99.90;;;;;;5065513;28;20204;-78
2024/01/12 07:08:49;;;;;;;16.33;11.30;;;-1.80;99.90;;;;;;5060824;28;20180;-78
2024/01/12 07:11:15;;;;;;;21.07;12.63;;;-1.30;99.90;;;;;;5056120;28;20564;-79
2024/01/12 07:13:41;;;;;;;22.53;13.70;;;-1.50;99.90;;;;;;5057069;28;20180;-77
2024/01/12 07:16:06;;;;;;;22.53;13.57;;;-1.60;99.90;;;;;;5054352;28;20180;-78
2024/01/12 07:18:32;;;;;;;18.10;11.40;;;-1.50;99.90;;;;;;5054245;28;20183;-81
2024/01/12 07:21:02;;;;;;;18.30;11.10;;;-1.40;99.90;;;;;;5054321;28;20261;-78
2024/01/12 07:23:30;;;;;;;18.73;11.33;;;-1.30;99.90;;;;;;5055072;28;20166;-81
2024/01/12 07:25:57;;;;;;;16.27;11.03;;;-1.40;99.90;;;;;;5054479;28;20180;-79
2024/01/12 07:28:24;;;;;;;19.53;9.60;;;-1.30;99.90;;;;;;5055219;28;20186;-79
2024/01/12 07:30:54;;;;;;;14.50;9.07;;;-1.30;99.90;;;;;;5048805;28;20171;-77
2024/01/12 07:33:21;;;;;;;16.43;9.97;;;-1.30;99.90;;;;;;5050644;28;20542;-78
2024/01/12 07:35:47;;;;;;;15.20;9.40;;;-1.30;99.90;;;;;;5054888;28;20260;-80
2024/01/12 07:38:12;;;;;;;13.97;9.17;;;-1.30;99.90;;;;;;5062382;28;20236;-76
2024/01/12 07:40:38;;;;;;;16.23;9.33;;;-1.00;99.90;;;;;;5057339;28;20313;-75
2024/01/12 07:43:04;;;;;;;15.90;9.23;;;-1.30;99.90;;;;;;5053043;28;20177;-78
2024/01/12 07:45:30;;;;;;;13.97;8.53;;;-1.60;99.90;;;;;;5054180;28;20173;-77
2024/01/12 07:47:56;;;;;;;16.13;9.30;;;-1.20;99.90;;;;;;5053623;28;20169;-76
2024/01/12 07:50:21;;;;;;;18.57;9.60;;;-1.30;99.90;;;;;;5059391;28;20202;-78
2024/01/12 07:52:47;;;;;;;16.93;9.77;;;-1.00;99.90;;;;;;5063579;28;20205;-76
2024/01/12 07:55:13;;;;;;;15.23;9.20;;;-1.10;99.90;;;;;;5056949;28;20196;-77
2024/01/12 07:57:38;;;;;;;16.93;9.77;;;-1.40;99.90;;;;;;5059299;28;20184;-78
2024/01/12 08:00:05;;;;;;;13.57;9.37;;;-1.20;99.90;;;;;;5055890;28;20252;-78
2024/01/12 08:02:31;;;;;;;14.03;9.23;;;-1.10;99.90;;;;;;5053141;28;20198;-78
2024/01/12 08:04:57;;;;;;;14.70;8.93;;;-1.00;99.90;;;;;;5052862;28;20171;-77
2024/01/12 08:07:23;;;;;;;14.90;8.87;;;-1.10;99.90;;;;;;5053466;28;20181;-75
2024/01/12 08:09:49;;;;;;;13.30;8.70;;;-1.00;99.90;;;;;;5053468;28;20565;-75
2024/01/12 08:12:14;;;;;;;14.27;9.80;;;-0.90;99.90;;;;;;5053672;28;20227;-75
2024/01/12 08:14:40;;;;;;;17.53;9.60;;;-1.00;99.90;;;;;;5053473;28;20193;-76
2024/01/12 08:17:06;;;;;;;16.77;10.33;;;-0.80;99.90;;;;;;5052366;28;20180;-77
2024/01/12 08:19:31;;;;;;;21.40;10.43;;;-0.90;99.90;;;;;;5052621;28;20185;-77
2024/01/12 08:21:57;;;;;;;18.17;10.03;;;-0.90;99.90;;;;;;5054751;28;20543;-76
2024/01/12 08:24:23;;;;;;;16.93;10.30;;;-0.60;99.90;;;;;;5053603;28;20181;-76
2024/01/12 08:26:49;;;;;;;15.50;9.97;;;-0.80;99.90;;;;;;5053827;28;20235;-77
2024/01/12 08:29:14;;;;;;;17.87;10.30;;;-0.80;99.90;;;;;;5055126;28;20174;-76
2024/01/12 08:31:40;;;;;;;15.70;10.23;;;-0.60;99.90;;;;;;5059381;28;20182;-78
2024/01/12 08:34:06;;;;;;;20.90;11.53;;;-0.50;99.90;;;;;;5056007;28;20500;-76
2024/01/12 08:36:32;;;;;;;19.97;11.13;;;-0.80;99.90;;;;;;5073499;28;20162;-78
2024/01/12 08:38:57;;;;;;;17.77;11.40;;;-0.60;99.90;;;;;;5059612;28;20182;-79
2024/01/12 08:41:23;;;;;;;17.00;10.13;;;-0.40;99.90;;;;;;5053804;28;20325;-81
2024/01/12 08:43:52;;;;;;;17.17;10.47;;;-0.10;99.90;;;;;;5052993;28;20182;-81
2024/01/12 08:46:19;;;;;;;18.63;10.00;;;-0.50;99.90;;;;;;5053851;28;20181;-77
2024/01/12 08:48:44;;;;;;;14.33;9.57;;;-0.20;99.90;;;;;;5052956;28;20181;-76
2024/01/12 08:51:10;;;;;;;12.87;9.97;;;-0.40;99.90;;;;;;5053137;28;20181;-78
2024/01/12 08:53:36;;;;;;;14.10;9.53;;;-0.30;99.90;;;;;;5053036;28;20179;-76
2024/01/12 08:56:02;;;;;;;16.20;9.47;;;0.00;99.90;;;;;;5059661;28;20174;-77
2024/01/12 08:58:27;;;;;;;17.67;9.93;;;0.10;99.90;;;;;;5057552;28;20174;-79
2024/01/12 09:00:53;;;;;;;15.60;10.03;;;0.10;99.90;;;;;;5053397;28;20217;-79
2024/01/12 09:03:19;;;;;;;14.10;10.17;;;0.20;99.90;;;;;;5053155;28;20179;-76
2024/01/12 09:05:45;;;;;;;17.63;10.20;;;0.10;99.90;;;;;;5052826;28;20737;-79
2024/01/12 09:08:11;;;;;;;19.90;10.60;;;0.30;99.90;;;;;;5052905;28;20207;-78
2024/01/12 09:10:36;;;;;;;14.57;9.70;;;0.30;99.90;;;;;;5052467;28;20313;-77
2024/01/12 09:13:02;;;;;;;13.13;9.97;;;0.40;99.90;;;;;;5054418;28;20206;-76
2024/01/12 09:15:28;;;;;;;14.47;9.73;;;0.50;99.90;;;;;;5067749;28;20175;-76
2024/01/12 09:17:54;;;;;;;15.37;10.07;;;0.50;99.90;;;;;;5055776;28;20179;-76
2024/01/12 09:20:19;;;;;;;16.23;10.33;;;0.20;99.90;;;;;;5052732;28;20701;-79
2024/01/12 09:22:45;;;;;;;16.20;10.30;;;0.40;99.90;;;;;;5053188;28;20233;-78
2024/01/12 09:25:11;;;;;;;16.73;9.50;;;0.40;99.90;;;;;;5054266;28;20177;-75
2024/01/12 09:27:37;;;;;;;17.97;11.50;;;0.20;99.90;;;;;;5053931;28;20547;-79
2024/01/12 09:30:03;;;;;;;14.07;10.90;;;0.50;99.90;;;;;;5052871;28;20168;-76
2024/01/12 09:32:29;;;;;;;17.23;10.87;;;0.30;99.90;;;;;;5056510;28;20588;-75
2024/01/12 09:34:55;;;;;;;17.40;11.43;;;0.30;99.90;;;;;;5058872;28;20195;-79
2024/01/12 09:37:21;;;;;;;17.60;11.80;;;-0.10;99.90;;;;;;5056692;28;20654;-78
2024/01/12 09:39:47;;;;;;;16.93;11.50;;;0.10;99.90;;;;;;5056284;28;20547;-78
2024/01/12 09:42:15;;;;;;;17.00;10.93;;;0.10;99.90;;;;;;5056199;28;20218;-76
2024/01/12 09:44:45;;;;;;;18.50;11.63;;;0.40;99.90;;;;;;5056725;28;20183;-76
2024/01/12 09:47:12;;;;;;;20.00;11.63;;;0.40;99.90;;;;;;5059857;28;20167;-77
2024/01/12 09:49:38;;;;;;;19.37;11.30;;;0.70;99.90;;;;;;5067771;28;20166;-78
2024/01/12 09:52:07;;;;;;;15.93;11.23;;;0.50;99.90;;;;;;5057643;28;20170;-76
2024/01/12 09:54:37;;;;;;;19.33;12.03;;;0.60;99.90;;;;;;5056443;28;20290;-77
2024/01/12 09:57:07;;;;;;;18.60;11.63;;;0.50;99.90;;;;;;5056633;28;20179;-76
2024/01/12 09:59:37;;;;;;;18.63;10.87;;;0.80;99.90;;;;;;5056154;28;20174;-80
2024/01/12 10:02:04;;;;;;;20.43;12.20;;;0.70;99.90;;;;;;5056485;28;20293;-81
2024/01/12 10:04:30;;;;;;;19.47;11.87;;;0.70;99.90;;;;;;5055891;28;20248;-83
2024/01/12 10:06:55;;;;;;;18.20;10.93;;;0.90;99.90;;;;;;5055560;28;20678;-77
2024/01/12 10:09:24;;;;;;;18.60;11.60;;;0.90;99.90;;;;;;5055388;28;20574;-76
2024/01/12 10:11:53;;;;;;;17.60;11.47;;;1.20;99.90;;;;;;5056049;28;20222;-78
2024/01/12 10:14:21;;;;;;;20.07;12.70;;;1.40;99.90;;;;;;5056937;28;20165;-76
2024/01/12 10:16:54;;;;;;;20.90;11.67;;;1.30;99.90;;;;;;5056048;28;20267;-78
2024/01/12 10:19:21;;;;;;;16.13;10.70;;;1.50;99.90;;;;;;5055719;28;20637;-79
2024/01/12 10:21:47;;;;;;;15.27;10.97;;;1.70;99.90;;;;;;5055704;28;20282;-78
2024/01/12 10:24:17;;;;;;;19.27;11.60;;;1.60;99.90;;;;;;5054859;28;20331;-77
2024/01/12 10:26:47;;;;;;;16.30;11.10;;;1.70;99.90;;;;;;5016118;28;20246;-78
2024/01/12 10:29:16;;;;;;;16.63;10.73;;;1.80;99.90;;;;;;5015269;28;20181;-77
2024/01/12 10:31:43;;;;;;;16.87;9.50;;;1.90;99.90;;;;;;5015740;28;20267;-78
2024/01/12 10:34:11;;;;;;;15.23;9.83;;;2.00;99.90;;;;;;5031851;28;20188;-76
2024/01/12 10:36:38;;;;;;;16.70;10.53;;;2.30;99.90;;;;;;5023895;28;20210;-77
2024/01/12 10:39:08;;;;;;;12.73;9.80;;;2.20;99.90;;;;;;5015867;28;20187;-79
2024/01/12 10:41:36;;;;;;;15.87;8.90;;;2.30;99.90;;;;;;5015443;28;20695;-77
2024/01/12 10:44:06;;;;;;;13.73;8.90;;;2.30;99.90;;;;;;5030165;28;20284;-77
2024/01/12 10:46:45;;;;;;;11.97;8.87;;;2.30;99.90;;;;;;5014565;28;20187;-76
2024/01/12 10:49:23;;;;;;;12.97;9.60;;;2.70;99.90;;;;;;5030083;28;20226;-77
2024/01/12 10:51:52;;;;;;;14.70;9.40;;;2.10;99.90;;;;;;5054616;28;20202;-78
2024/01/12 10:54:33;;;;;;;15.07;11.10;;;2.20;99.90;;;;;;5067962;28;20172;-78
2024/01/12 10:56:59;;;;;;;14.90;10.17;;;2.10;99.90;;;;;;5054809;28;20172;-79
2024/01/12 10:59:27;;;;;;;13.43;8.67;;;2.20;99.90;;;;;;5055011;28;21033;-78
2024/01/12 11:01:54;;;;;;;16.00;9.30;;;2.10;99.90;;;;;;5054904;28;20222;-79
2024/01/12 11:04:21;;;;;;;14.70;9.27;;;2.10;99.90;;;;;;5054902;28;20291;-76
2024/01/12 11:06:51;;;;;;;12.83;9.07;;;2.10;99.90;;;;;;5058804;28;20152;-79
2024/01/12 11:09:18;;;;;;;11.17;8.90;;;2.10;99.90;;;;;;5072021;28;20211;-79
2024/01/12 11:11:49;;;;;;;12.57;8.63;;;2.30;99.90;;;;;;5054366;28;20219;-78
2024/01/12 11:14:16;;;;;;;12.53;9.17;;;2.50;99.90;;;;;;5053553;28;20166;-77
2024/01/12 11:16:42;;;;;;;13.10;8.87;;;2.60;99.90;;;;;;5074154;28;20191;-78
2024/01/12 11:19:14;;;;;;;12.93;8.60;;;2.60;99.90;;;;;;5058400;28;20217;-78
2024/01/12 11:21:42;;;;;;;10.53;7.90;;;2.60;99.90;;;;;;5055448;28;20545;-79
2024/01/12 11:24:11;;;;;;;12.30;8.53;;;2.60;99.90;;;;;;5043519;28;20787;-80
2024/01/12 11:26:37;;;;;;;9.63;7.50;;;2.50;99.90;;;;;;5037434;28;20582;-79
2024/01/12 11:29:03;;;;;;;9.57;7.83;;;2.50;99.90;;;;;;5054250;28;20177;-78
2024/01/12 11:31:29;;;;;;;9.87;6.90;;;2.80;99.90;;;;;;5054385;28;20170;-79
2024/01/12 11:34:02;;;;;;;9.43;7.33;;;2.70;99.90;;;;;;5053042;28;20188;-78
2024/01/12 11:36:30;;;;;;;9.13;7.10;;;2.60;99.90;;;;;;5054224;28;20633;-78
2024/01/12 11:39:00;;;;;;;7.77;6.83;;;2.60;99.90;;;;;;5054379;28;20227;-76
2024/01/12 11:41:30;;;;;;;7.97;6.87;;;3.00;99.90;;;;;;5053935;28;20211;-80
2024/01/12 11:43:56;;;;;;;9.13;7.07;;;3.50;99.90;;;;;;5054650;28;20169;-77
2024/01/12 11:46:26;;;;;;;8.70;7.03;;;3.10;99.90;;;;;;5054056;28;20626;-80
2024/01/12 11:48:52;;;;;;;9.70;6.80;;;3.30;99.90;;;;;;5054770;28;20176;-80
2024/01/12 11:51:27;;;;;;;9.23;6.90;;;3.50;99.90;;;;;;5055564;28;20243;-77
2024/01/12 11:53:56;;;;;;;9.60;7.27;;;3.30;99.90;;;;;;5053628;28;20163;-79
2024/01/12 11:56:22;;;;;;;10.17;7.90;;;3.30;99.90;;;;;;5054710;28;20189;-78
2024/01/12 11:58:48;;;;;;;8.47;7.40;;;3.40;99.90;;;;;;5056414;28;20188;-78
2024/01/12 12:01:15;;;;;;;8.90;6.80;;;3.30;99.90;;;;;;5055031;28;20211;-78
2024/01/12 12:03:41;;;;;;;9.60;7.50;;;3.00;99.90;;;;;;5056854;28;20172;-77
2024/01/12 12:06:11;;;;;;;16.50;7.30;;;2.90;99.90;;;;;;5057121;28;20168;-77
2024/01/12 12:08:42;;;;;;;10.23;7.67;;;2.80;99.90;;;;;;5062199;28;20180;-78
2024/01/12 12:11:08;;;;;;;9.30;6.90;;;2.80;99.90;;;;;;5059135;28;20220;-79
2024/01/12 12:13:35;;;;;;;9.20;6.80;;;3.00;99.90;;;;;;5053658;28;20182;-79
2024/01/12 12:16:01;;;;;;;8.33;7.03;;;2.90;99.90;;;;;;5053649;28;20233;-78
2024/01/12 12:18:32;;;;;;;10.60;7.13;;;2.90;99.90;;;;;;5053724;28;20575;-78
2024/01/12 12:21:01;;;;;;;9.07;6.83;;;2.90;99.90;;;;;;5053898;28;20659;-78
2024/01/12 12:23:28;;;;;;;9.87;7.17;;;3.00;99.90;;;;;;5069811;28;20292;-77
2024/01/12 12:25:54;;;;;;;13.10;7.17;;;2.70;99.90;;;;;;5064207;28;20190;-75
2024/01/12 12:28:22;;;;;;;9.73;6.60;;;2.60;99.90;;;;;;5058874;28;20591;-76
2024/01/12 12:30:50;;;;;;;8.40;6.57;;;2.70;99.90;;;;;;5063968;28;20179;-77